createdAt,value
2018-03-03T00:01:03.260Z,0.97
2018-03-03T00:02:06.753Z,1.01
2018-03-03T00:03:10.084Z,1.06
2018-03-03T00:04:13.563Z,1.10
2018-03-03T00:05:16.870Z,1.12
2018-03-03T00:06:20.240Z,1.16
2018-03-03T00:07:23.638Z,1.20
2018-03-03T00:08:26.968Z,1.23
2018-03-03T00:09:30.312Z,1.25
2018-03-03T00:10:33.665Z,1.28
2018-03-03T00:11:37.125Z,1.30
2018-03-03T00:12:40.634Z,1.31
2018-03-03T00:13:43.958Z,1.33
2018-03-03T00:14:47.309Z,1.34
2018-03-03T00:15:50.643Z,1.34
2018-03-03T00:16:54.050Z,1.35
2018-03-03T00:17:57.441Z,1.35
2018-03-03T00:19:00.798Z,1.35
2018-03-03T00:20:04.108Z,1.36
2018-03-03T00:21:07.432Z,1.37
2018-03-03T00:22:10.918Z,1.38
2018-03-03T00:23:14.234Z,1.39
2018-03-03T00:24:17.652Z,1.40
2018-03-03T00:25:21.076Z,1.41
2018-03-03T00:26:24.417Z,1.42
2018-03-03T00:27:27.849Z,1.44
2018-03-03T00:28:31.168Z,1.44
2018-03-03T00:29:34.553Z,1.46
2018-03-03T00:30:37.982Z,1.47
2018-03-03T00:31:41.323Z,1.47
2018-03-03T00:32:44.657Z,1.48
2018-03-03T00:33:48.015Z,1.49
2018-03-03T00:34:51.338Z,1.50
2018-03-03T00:35:54.641Z,1.50
2018-03-03T00:36:58.042Z,1.50
2018-03-03T00:38:01.409Z,1.49
2018-03-03T00:39:04.802Z,1.48
2018-03-03T00:40:08.156Z,1.47
2018-03-03T00:41:11.533Z,1.49
2018-03-03T00:42:14.844Z,1.49
2018-03-03T00:43:18.216Z,1.50
2018-03-03T00:44:21.578Z,1.50
2018-03-03T00:45:24.969Z,1.51
2018-03-03T00:46:28.288Z,1.52
2018-03-03T00:47:31.638Z,1.54
2018-03-03T00:48:35.030Z,1.54
2018-03-03T00:49:38.411Z,1.55
2018-03-03T00:50:42.618Z,1.55
2018-03-03T00:51:45.942Z,1.56
2018-03-03T00:52:49.302Z,1.57
2018-03-03T00:53:52.699Z,1.59
2018-03-03T00:54:56.010Z,1.60
2018-03-03T00:55:59.609Z,1.61
2018-03-03T00:57:02.919Z,1.61
2018-03-03T00:58:06.321Z,1.63
2018-03-03T00:59:09.711Z,1.63
2018-03-03T01:00:13.102Z,1.64
2018-03-03T01:01:16.451Z,1.66
2018-03-03T01:02:19.762Z,1.67
2018-03-03T01:03:23.077Z,1.68
2018-03-03T01:04:26.427Z,1.69
2018-03-03T01:05:29.752Z,1.70
2018-03-03T01:06:33.080Z,1.70
2018-03-03T01:07:36.411Z,1.71
2018-03-03T01:08:39.740Z,1.71
2018-03-03T01:09:43.088Z,1.72
2018-03-03T01:10:46.443Z,1.73
2018-03-03T01:11:49.832Z,1.73
2018-03-03T01:12:53.166Z,1.73
2018-03-03T01:13:56.487Z,1.74
2018-03-03T01:14:59.901Z,1.74
2018-03-03T01:16:03.222Z,1.73
2018-03-03T01:17:06.687Z,1.75
2018-03-03T01:18:10.008Z,1.76
2018-03-03T01:19:13.305Z,1.76
2018-03-03T01:20:16.742Z,1.77
2018-03-03T01:21:20.065Z,1.76
2018-03-03T01:22:23.407Z,1.77
2018-03-03T01:23:26.756Z,1.77
2018-03-03T01:24:30.108Z,1.76
2018-03-03T01:25:33.448Z,1.75
2018-03-03T01:26:36.855Z,1.74
2018-03-03T01:27:40.216Z,1.74
2018-03-03T01:28:43.657Z,1.74
2018-03-03T01:29:46.997Z,1.74
2018-03-03T01:30:50.565Z,1.76
2018-03-03T01:31:53.913Z,1.76
2018-03-03T01:32:57.265Z,1.76
2018-03-03T01:34:00.712Z,1.78
2018-03-03T01:35:04.004Z,1.78
2018-03-03T01:36:07.378Z,1.78
2018-03-03T01:37:10.713Z,1.78
2018-03-03T01:38:14.053Z,1.79
2018-03-03T01:39:17.387Z,1.79
2018-03-03T01:40:20.719Z,1.78
2018-03-03T01:41:24.144Z,1.78
2018-03-03T01:42:27.463Z,1.78
2018-03-03T01:43:30.788Z,1.77
2018-03-03T01:44:34.189Z,1.76
2018-03-03T01:45:37.524Z,1.75
2018-03-03T01:46:40.882Z,1.76
2018-03-03T01:47:44.277Z,1.75
2018-03-03T01:48:47.613Z,1.74
2018-03-03T01:49:50.980Z,1.73
2018-03-03T01:50:54.439Z,1.72
2018-03-03T01:51:57.841Z,1.72
2018-03-03T01:53:01.341Z,1.72
2018-03-03T01:54:04.712Z,1.72
2018-03-03T01:55:08.049Z,1.73
2018-03-03T01:56:11.434Z,1.73
2018-03-03T01:57:14.768Z,1.74
2018-03-03T01:58:18.092Z,1.75
2018-03-03T01:59:21.431Z,1.74
2018-03-03T02:00:24.769Z,1.74
2018-03-03T02:01:28.224Z,1.75
2018-03-03T02:02:31.561Z,1.73
2018-03-03T02:03:34.963Z,1.73
2018-03-03T02:04:38.305Z,1.72
2018-03-03T02:05:41.628Z,1.72
2018-03-03T02:06:45.000Z,1.72
2018-03-03T02:07:48.369Z,1.71
2018-03-03T02:08:51.787Z,1.71
2018-03-03T02:09:55.112Z,1.70
2018-03-03T02:10:58.441Z,1.70
2018-03-03T02:12:02.293Z,1.69
2018-03-03T02:13:05.693Z,1.68
2018-03-03T02:14:09.068Z,1.68
2018-03-03T02:15:12.416Z,1.67
2018-03-03T02:16:15.852Z,1.66
2018-03-03T02:17:19.200Z,1.66
2018-03-03T02:18:22.608Z,1.66
2018-03-03T02:19:25.935Z,1.66
2018-03-03T02:20:29.304Z,1.66
2018-03-03T02:21:32.602Z,1.65
2018-03-03T02:22:35.953Z,1.64
2018-03-03T02:23:39.275Z,1.63
2018-03-03T02:24:42.622Z,1.62
2018-03-03T02:25:45.976Z,1.61
2018-03-03T02:26:50.052Z,1.61
2018-03-03T02:27:53.402Z,1.62
2018-03-03T02:28:56.898Z,1.62
2018-03-03T02:30:00.257Z,1.62
2018-03-03T02:31:03.603Z,1.62
2018-03-03T02:32:07.002Z,1.63
2018-03-03T02:33:10.541Z,1.64
2018-03-03T02:34:13.936Z,1.64
2018-03-03T02:35:17.247Z,1.64
2018-03-03T02:36:20.651Z,1.64
2018-03-03T02:37:24.079Z,1.64
2018-03-03T02:38:27.501Z,1.66
2018-03-03T02:39:30.927Z,1.68
2018-03-03T02:40:34.336Z,1.69
2018-03-03T02:41:37.797Z,1.69
2018-03-03T02:42:41.149Z,1.70
2018-03-03T02:43:44.621Z,1.70
2018-03-03T02:44:47.952Z,1.70
2018-03-03T02:45:51.312Z,1.71
2018-03-03T02:46:54.727Z,1.72
2018-03-03T02:47:58.030Z,1.72
2018-03-03T02:49:01.351Z,1.71
2018-03-03T02:50:04.759Z,1.69
2018-03-03T02:51:08.070Z,1.70
2018-03-03T02:52:11.458Z,1.70
2018-03-03T02:53:14.764Z,1.71
2018-03-03T02:54:18.166Z,1.72
2018-03-03T02:55:21.570Z,1.71
2018-03-03T02:56:24.993Z,1.71
2018-03-03T02:57:28.363Z,1.70
2018-03-03T02:58:31.733Z,1.69
2018-03-03T02:59:35.185Z,1.69
2018-03-03T03:00:38.793Z,1.65
2018-03-03T03:01:42.220Z,1.63
2018-03-03T03:02:45.597Z,1.61
2018-03-03T03:03:48.906Z,1.59
2018-03-03T03:04:52.309Z,1.57
2018-03-03T03:05:55.658Z,1.55
2018-03-03T03:06:58.948Z,1.54
2018-03-03T03:08:02.356Z,1.51
2018-03-03T03:09:05.710Z,1.50
2018-03-03T03:10:09.036Z,1.49
2018-03-03T03:11:12.383Z,1.49
2018-03-03T03:12:15.774Z,1.49
2018-03-03T03:13:19.084Z,1.47
2018-03-03T03:14:22.432Z,1.46
2018-03-03T03:15:25.837Z,1.44
2018-03-03T03:16:29.169Z,1.42
2018-03-03T03:17:32.533Z,1.43
2018-03-03T03:18:35.979Z,1.42
2018-03-03T03:19:39.304Z,1.42
2018-03-03T03:20:42.629Z,1.42
2018-03-03T03:21:46.060Z,1.44
2018-03-03T03:22:49.480Z,1.44
2018-03-03T03:23:52.793Z,1.44
2018-03-03T03:24:56.166Z,1.44
2018-03-03T03:25:59.495Z,1.44
2018-03-03T03:27:02.840Z,1.43
2018-03-03T03:28:06.159Z,1.41
2018-03-03T03:29:09.521Z,1.39
2018-03-03T03:30:12.877Z,1.39
2018-03-03T03:31:16.202Z,1.39
2018-03-03T03:32:19.538Z,1.38
2018-03-03T03:33:22.888Z,1.39
2018-03-03T03:34:26.253Z,1.38
2018-03-03T03:35:29.601Z,1.39
2018-03-03T03:36:32.929Z,1.38
2018-03-03T03:37:36.382Z,1.39
2018-03-03T03:38:39.743Z,1.41
2018-03-03T03:39:43.085Z,1.43
2018-03-03T03:40:46.468Z,1.44
2018-03-03T03:41:49.836Z,1.45
2018-03-03T03:42:53.412Z,1.45
2018-03-03T03:43:56.737Z,1.46
2018-03-03T03:45:00.159Z,1.46
2018-03-03T03:46:03.537Z,1.46
2018-03-03T03:47:06.833Z,1.46
2018-03-03T03:48:10.257Z,1.46
2018-03-03T03:49:13.609Z,1.46
2018-03-03T03:50:16.947Z,1.46
2018-03-03T03:51:20.307Z,1.46
2018-03-03T03:52:24.011Z,1.46
2018-03-03T03:53:27.459Z,1.46
2018-03-03T03:54:30.865Z,1.46
2018-03-03T03:55:34.262Z,1.47
2018-03-03T03:56:37.837Z,1.48
2018-03-03T03:57:41.269Z,1.49
2018-03-03T03:58:44.652Z,1.50
2018-03-03T03:59:47.976Z,1.51
2018-03-03T04:00:51.365Z,1.51
2018-03-03T04:01:54.724Z,1.50
2018-03-03T04:02:58.058Z,1.50
2018-03-03T04:04:01.448Z,1.50
2018-03-03T04:05:04.797Z,1.51
2018-03-03T04:06:08.175Z,1.51
2018-03-03T04:07:11.493Z,1.53
2018-03-03T04:08:14.904Z,1.54
2018-03-03T04:09:18.340Z,1.55
2018-03-03T04:10:21.822Z,1.55
2018-03-03T04:11:25.168Z,1.54
2018-03-03T04:12:28.495Z,1.54
2018-03-03T04:13:31.904Z,1.54
2018-03-03T04:14:35.419Z,1.54
2018-03-03T04:15:38.865Z,1.54
2018-03-03T04:16:42.206Z,1.54
2018-03-03T04:17:45.565Z,1.55
2018-03-03T04:18:48.886Z,1.56
2018-03-03T04:19:52.336Z,1.57
2018-03-03T04:20:55.667Z,1.57
2018-03-03T04:21:58.972Z,1.58
2018-03-03T04:23:02.398Z,1.59
2018-03-03T04:24:05.884Z,1.60
2018-03-03T04:25:09.389Z,1.60
2018-03-03T04:26:12.715Z,1.62
2018-03-03T04:27:16.037Z,1.63
2018-03-03T04:28:19.451Z,1.65
2018-03-03T04:29:22.950Z,1.66
2018-03-03T04:30:26.324Z,1.68
2018-03-03T04:31:29.623Z,1.68
2018-03-03T04:32:32.998Z,1.67
2018-03-03T04:33:36.421Z,1.67
2018-03-03T04:34:39.722Z,1.67
2018-03-03T04:35:43.055Z,1.68
2018-03-03T04:36:46.415Z,1.67
2018-03-03T04:37:49.807Z,1.66
2018-03-03T04:38:53.149Z,1.66
2018-03-03T04:39:56.596Z,1.66
2018-03-03T04:40:59.953Z,1.66
2018-03-03T04:42:03.268Z,1.67
2018-03-03T04:43:06.615Z,1.68
2018-03-03T04:44:09.943Z,1.68
2018-03-03T04:45:13.285Z,1.68
2018-03-03T04:46:16.756Z,1.69
2018-03-03T04:47:20.132Z,1.70
2018-03-03T04:48:23.513Z,1.71
2018-03-03T04:49:26.812Z,1.70
2018-03-03T04:50:30.232Z,1.71
2018-03-03T04:51:33.622Z,1.71
2018-03-03T04:52:37.001Z,1.70
2018-03-03T04:53:40.306Z,1.70
2018-03-03T04:54:43.672Z,1.68
2018-03-03T04:55:47.057Z,1.67
2018-03-03T04:56:50.484Z,1.67
2018-03-03T04:57:53.906Z,1.67
2018-03-03T05:00:49.086Z,1.69
2018-03-03T05:01:57.960Z,1.68
2018-03-03T05:03:01.823Z,1.68
2018-03-03T05:04:18.146Z,1.69
2018-03-03T05:05:41.154Z,1.69
2018-03-03T05:07:03.446Z,1.66
2018-03-03T05:08:07.696Z,1.65
2018-03-03T05:09:11.071Z,1.67
2018-03-03T05:10:14.863Z,1.69
2018-03-03T05:11:18.282Z,1.70
2018-03-03T05:12:27.278Z,1.73
2018-03-03T05:13:35.236Z,1.73
2018-03-03T05:14:45.016Z,1.73
2018-03-03T05:17:41.960Z,1.74
2018-03-03T05:20:20.681Z,1.78
2018-03-03T05:21:25.392Z,1.79
2018-03-03T05:22:35.366Z,1.80
2018-03-03T05:23:44.693Z,1.79
2018-03-03T05:24:53.745Z,1.80
2018-03-03T05:27:41.608Z,1.77
2018-03-03T05:28:50.597Z,1.78
2018-03-03T05:29:59.919Z,1.78
2018-03-03T05:32:45.733Z,1.77
2018-03-03T05:33:54.749Z,1.78
2018-03-03T05:35:03.765Z,1.78
2018-03-03T05:36:12.748Z,1.79
2018-03-03T05:38:56.556Z,1.80
2018-03-03T05:40:05.498Z,1.78
2018-03-03T05:41:14.415Z,1.77
2018-03-03T05:42:23.232Z,1.77
2018-03-03T05:43:32.254Z,1.77
2018-03-03T05:44:36.353Z,1.76
2018-03-03T05:45:45.154Z,1.76
2018-03-03T05:46:54.170Z,1.75
2018-03-03T05:48:01.483Z,1.74
2018-03-03T05:49:13.418Z,1.75
2018-03-03T05:50:17.508Z,1.73
2018-03-03T05:51:27.388Z,1.74
2018-03-03T05:52:36.236Z,1.73
2018-03-03T05:55:20.140Z,1.70
2018-03-03T05:56:29.928Z,1.70
2018-03-03T05:59:29.394Z,1.71
2018-03-03T06:02:07.021Z,1.73
2018-03-03T06:03:15.941Z,1.73
2018-03-03T06:04:24.905Z,1.73
2018-03-03T06:05:34.799Z,1.74
2018-03-03T06:06:49.983Z,1.73
2018-03-03T06:07:58.922Z,1.73
2018-03-03T06:09:04.157Z,1.73
2018-03-03T06:11:47.712Z,1.75
2018-03-03T06:12:51.236Z,1.74
2018-03-03T06:13:54.567Z,1.76
2018-03-03T06:14:57.909Z,1.75
2018-03-03T06:16:01.297Z,1.76
2018-03-03T06:17:04.690Z,1.76
2018-03-03T06:18:08.077Z,1.76
2018-03-03T06:19:11.446Z,1.76
2018-03-03T06:20:14.780Z,1.75
2018-03-03T06:21:18.207Z,1.75
2018-03-03T06:22:21.510Z,1.75
2018-03-03T06:23:24.898Z,1.75
2018-03-03T06:24:28.208Z,1.74
2018-03-03T06:25:31.603Z,1.74
2018-03-03T06:26:34.903Z,1.72
2018-03-03T06:27:38.334Z,1.71
2018-03-03T06:28:41.677Z,1.70
2018-03-03T06:29:45.036Z,1.70
2018-03-03T06:30:48.353Z,1.69
2018-03-03T06:31:51.728Z,1.69
2018-03-03T06:32:55.095Z,1.67
2018-03-03T06:33:58.498Z,1.68
2018-03-03T06:35:01.857Z,1.67
2018-03-03T06:36:05.666Z,1.68
2018-03-03T06:37:09.017Z,1.70
2018-03-03T06:38:12.464Z,1.70
2018-03-03T06:39:15.851Z,1.70
2018-03-03T06:40:19.229Z,1.71
2018-03-03T06:41:22.607Z,1.71
2018-03-03T06:42:26.156Z,1.70
2018-03-03T06:43:29.494Z,1.70
2018-03-03T06:44:32.873Z,1.68
2018-03-03T06:45:36.189Z,1.70
2018-03-03T06:46:39.882Z,1.70
2018-03-03T06:47:43.271Z,1.71
2018-03-03T06:48:46.663Z,1.72
2018-03-03T06:49:50.013Z,1.73
2018-03-03T06:50:53.361Z,1.73
2018-03-03T06:51:56.725Z,1.72
2018-03-03T06:53:00.062Z,1.71
2018-03-03T06:54:03.446Z,1.70
2018-03-03T06:55:06.929Z,1.70
2018-03-03T06:56:10.228Z,1.69
2018-03-03T06:57:13.607Z,1.67
2018-03-03T06:58:17.228Z,1.68
2018-03-03T06:59:20.543Z,1.68
2018-03-03T07:00:23.934Z,1.70
2018-03-03T07:01:27.257Z,1.71
2018-03-03T07:02:30.587Z,1.71
2018-03-03T07:03:33.967Z,1.71
2018-03-03T07:04:37.362Z,1.72
2018-03-03T07:05:40.725Z,1.73
2018-03-03T07:06:44.113Z,1.73
2018-03-03T07:07:47.533Z,1.73
2018-03-03T07:08:50.844Z,1.73
2018-03-03T07:09:54.289Z,1.75
2018-03-03T07:10:57.707Z,1.75
2018-03-03T07:12:01.039Z,1.78
2018-03-03T07:13:04.385Z,1.80
2018-03-03T07:14:07.792Z,1.82
2018-03-03T07:15:22.985Z,1.82
2018-03-03T07:16:26.367Z,1.81
2018-03-03T07:17:29.677Z,1.82
2018-03-03T07:18:32.992Z,1.83
2018-03-03T07:19:36.375Z,1.85
2018-03-03T07:20:39.805Z,1.87
2018-03-03T07:21:43.152Z,1.89
2018-03-03T07:22:46.543Z,1.92
2018-03-03T07:23:49.909Z,1.92
2018-03-03T07:24:53.270Z,1.93
2018-03-03T07:25:56.592Z,1.93
2018-03-03T07:27:00.021Z,1.94
2018-03-03T07:28:03.360Z,1.94
2018-03-03T07:29:06.709Z,1.94
2018-03-03T07:30:10.090Z,1.96
2018-03-03T07:31:13.421Z,1.96
2018-03-03T07:32:16.802Z,1.96
2018-03-03T07:33:20.189Z,1.96
2018-03-03T07:34:23.590Z,1.97
2018-03-03T07:35:26.922Z,1.99
2018-03-03T07:36:30.301Z,2.01
2018-03-03T07:37:33.656Z,2.03
2018-03-03T07:38:37.750Z,2.03
2018-03-03T07:39:41.140Z,2.04
2018-03-03T07:40:44.493Z,2.06
2018-03-03T07:41:47.874Z,2.06
2018-03-03T07:42:51.321Z,2.06
2018-03-03T07:43:54.662Z,2.05
2018-03-03T07:44:58.753Z,2.05
2018-03-03T07:46:02.311Z,2.05
2018-03-03T07:47:05.623Z,2.07
2018-03-03T07:48:09.024Z,2.09
2018-03-03T07:49:12.433Z,2.09
2018-03-03T07:50:15.800Z,2.09
2018-03-03T07:51:19.182Z,2.08
2018-03-03T07:52:22.519Z,2.09
2018-03-03T07:53:27.029Z,2.08
2018-03-03T07:54:30.382Z,2.07
2018-03-03T07:55:33.722Z,2.07
2018-03-03T07:56:49.250Z,2.08
2018-03-03T07:57:52.647Z,2.07
2018-03-03T07:58:58.675Z,2.08
2018-03-03T08:00:02.962Z,2.09
2018-03-03T08:01:06.368Z,2.09
2018-03-03T08:02:09.796Z,2.10
2018-03-03T08:03:13.219Z,2.12
2018-03-03T08:04:16.636Z,2.13
2018-03-03T08:05:20.064Z,2.15
2018-03-03T08:06:23.437Z,2.16
2018-03-03T08:07:26.793Z,2.17
2018-03-03T08:08:30.173Z,2.19
2018-03-03T08:09:33.587Z,2.19
2018-03-03T08:10:36.936Z,2.22
2018-03-03T08:11:40.234Z,2.23
2018-03-03T08:12:43.576Z,2.25
2018-03-03T08:13:47.800Z,2.26
2018-03-03T08:14:51.192Z,2.27
2018-03-03T08:15:54.528Z,2.29
2018-03-03T08:18:07.574Z,2.32
2018-03-03T08:19:10.917Z,2.34
2018-03-03T08:20:14.468Z,2.36
2018-03-03T08:21:17.924Z,2.37
2018-03-03T08:22:21.699Z,2.39
2018-03-03T08:23:25.023Z,2.40
2018-03-03T08:24:28.399Z,2.41
2018-03-03T08:25:32.129Z,2.43
2018-03-03T08:26:35.658Z,2.44
2018-03-03T08:27:39.096Z,2.46
2018-03-03T08:28:42.489Z,2.48
2018-03-03T08:29:45.854Z,2.49
2018-03-03T08:30:49.329Z,2.50
2018-03-03T08:31:52.686Z,2.52
2018-03-03T08:32:56.083Z,2.54
2018-03-03T08:33:59.835Z,2.55
2018-03-03T08:35:03.268Z,2.55
2018-03-03T08:36:06.842Z,2.56
2018-03-03T08:37:10.171Z,2.57
2018-03-03T08:38:13.496Z,2.59
2018-03-03T08:39:16.900Z,2.61
2018-03-03T08:40:20.224Z,2.62
2018-03-03T08:41:23.574Z,2.62
2018-03-03T08:42:26.900Z,2.64
2018-03-03T08:43:30.215Z,2.65
2018-03-03T08:44:33.576Z,2.65
2018-03-03T08:45:37.029Z,2.67
2018-03-03T08:46:40.370Z,2.68
2018-03-03T08:47:43.701Z,2.69
2018-03-03T08:48:47.100Z,2.70
2018-03-03T08:49:50.435Z,2.70
2018-03-03T08:50:53.832Z,2.70
2018-03-03T08:51:57.257Z,2.73
2018-03-03T08:53:00.619Z,2.74
2018-03-03T08:54:03.990Z,2.75
2018-03-03T08:55:07.297Z,2.75
2018-03-03T08:56:10.613Z,2.76
2018-03-03T08:57:14.035Z,2.77
2018-03-03T08:58:17.384Z,2.77
2018-03-03T08:59:21.073Z,2.79
2018-03-03T09:00:24.419Z,2.79
2018-03-03T09:01:27.731Z,2.80
2018-03-03T09:02:31.121Z,2.80
2018-03-03T09:03:34.453Z,2.82
2018-03-03T09:04:38.849Z,2.83
2018-03-03T09:05:42.237Z,2.83
2018-03-03T09:06:45.665Z,2.83
2018-03-03T09:07:49.046Z,2.82
2018-03-03T09:08:52.432Z,2.82
2018-03-03T09:09:55.798Z,2.83
2018-03-03T09:10:59.125Z,2.85
2018-03-03T09:12:02.460Z,2.86
2018-03-03T09:13:05.885Z,2.87
2018-03-03T09:14:09.320Z,2.88
2018-03-03T09:15:12.645Z,2.89
2018-03-03T09:16:16.030Z,2.89
2018-03-03T09:17:19.404Z,2.90
2018-03-03T09:18:22.761Z,2.91
2018-03-03T09:19:26.078Z,2.92
2018-03-03T09:20:29.509Z,2.93
2018-03-03T09:21:32.837Z,2.94
2018-03-03T09:22:36.309Z,2.95
2018-03-03T09:23:39.811Z,2.97
2018-03-03T09:24:43.116Z,2.99
2018-03-03T09:25:46.550Z,3.01
2018-03-03T09:26:49.861Z,3.03
2018-03-03T09:27:53.232Z,3.06
2018-03-03T09:28:56.586Z,3.08
2018-03-03T09:29:59.919Z,3.11
2018-03-03T09:31:03.228Z,3.14
2018-03-03T09:32:06.642Z,3.15
2018-03-03T09:33:10.041Z,3.15
2018-03-03T09:34:13.534Z,3.17
2018-03-03T09:35:16.907Z,3.19
2018-03-03T09:36:20.218Z,3.21
2018-03-03T09:37:23.532Z,3.23
2018-03-03T09:38:26.860Z,3.25
2018-03-03T09:39:30.231Z,3.26
2018-03-03T09:40:33.643Z,3.29
2018-03-03T09:41:37.077Z,3.30
2018-03-03T09:42:40.512Z,3.32
2018-03-03T09:43:44.028Z,3.31
2018-03-03T09:44:47.497Z,3.32
2018-03-03T09:45:50.869Z,3.33
2018-03-03T09:46:54.221Z,3.35
2018-03-03T09:47:57.549Z,3.35
2018-03-03T09:49:00.869Z,3.38
2018-03-03T09:50:04.272Z,3.42
2018-03-03T09:51:07.592Z,3.46
2018-03-03T09:52:10.926Z,3.51
2018-03-03T09:53:14.485Z,3.54
2018-03-03T09:54:17.816Z,3.59
2018-03-03T09:55:21.301Z,3.63
2018-03-03T09:56:24.852Z,3.67
2018-03-03T09:57:28.200Z,3.71
2018-03-03T09:58:31.591Z,3.74
2018-03-03T09:59:35.288Z,3.78
2018-03-03T10:00:38.714Z,3.82
2018-03-03T10:01:43.361Z,3.85
2018-03-03T10:02:45.527Z,3.87
2018-03-03T10:03:48.959Z,3.88
2018-03-03T10:04:52.294Z,3.90
2018-03-03T10:05:55.753Z,3.92
2018-03-03T10:06:59.049Z,3.94
2018-03-03T10:08:02.454Z,3.96
2018-03-03T10:09:05.886Z,3.99
2018-03-03T10:10:09.210Z,4.02
2018-03-03T10:11:12.575Z,4.05
2018-03-03T10:12:15.953Z,4.07
2018-03-03T10:13:19.280Z,4.10
2018-03-03T10:14:22.629Z,4.14
2018-03-03T10:15:26.019Z,4.18
2018-03-03T10:16:29.387Z,4.21
2018-03-03T10:17:32.733Z,4.24
2018-03-03T10:18:36.099Z,4.28
2018-03-03T10:19:39.484Z,4.33
2018-03-03T10:20:42.876Z,4.38
2018-03-03T10:21:46.286Z,4.43
2018-03-03T10:22:49.608Z,4.48
2018-03-03T10:23:53.064Z,4.51
2018-03-03T10:24:56.427Z,4.54
2018-03-03T10:25:59.722Z,4.58
2018-03-03T10:27:03.074Z,4.61
2018-03-03T10:28:06.395Z,4.65
2018-03-03T10:29:09.718Z,4.68
2018-03-03T10:30:13.038Z,4.72
2018-03-03T10:31:16.514Z,4.76
2018-03-03T10:32:20.169Z,4.80
2018-03-03T10:33:23.505Z,4.83
2018-03-03T10:34:27.041Z,4.85
2018-03-03T10:35:30.404Z,4.89
2018-03-03T10:36:33.752Z,4.92
2018-03-03T10:37:37.521Z,4.93
2018-03-03T10:38:40.916Z,4.96
2018-03-03T10:39:44.280Z,4.99
2018-03-03T10:40:47.750Z,5.04
2018-03-03T10:41:51.067Z,5.10
2018-03-03T10:42:54.417Z,5.16
2018-03-03T10:43:57.750Z,5.22
2018-03-03T10:45:01.302Z,5.26
2018-03-03T10:46:04.801Z,5.30
2018-03-03T10:47:08.130Z,5.34
2018-03-03T10:48:11.670Z,5.38
2018-03-03T10:49:15.057Z,5.40
2018-03-03T10:50:18.541Z,5.44
2018-03-03T10:51:22.030Z,5.47
2018-03-03T10:52:25.503Z,5.47
2018-03-03T10:53:28.858Z,5.45
2018-03-03T10:54:32.196Z,5.44
2018-03-03T10:55:35.520Z,5.45
2018-03-03T10:56:39.075Z,5.47
2018-03-03T10:57:42.442Z,5.50
2018-03-03T10:58:45.859Z,5.54
2018-03-03T10:59:49.270Z,5.58
2018-03-03T11:00:52.637Z,5.60
2018-03-03T11:01:56.042Z,5.64
2018-03-03T11:02:59.412Z,5.67
2018-03-03T11:04:02.902Z,5.70
2018-03-03T11:05:06.248Z,5.73
2018-03-03T11:06:09.565Z,5.74
2018-03-03T11:07:12.880Z,5.76
2018-03-03T11:08:16.307Z,5.78
2018-03-03T11:09:19.684Z,5.80
2018-03-03T11:10:23.098Z,5.82
2018-03-03T11:11:26.400Z,5.84
2018-03-03T11:12:29.743Z,5.82
2018-03-03T11:14:35.532Z,5.82
2018-03-03T11:15:38.955Z,5.82
2018-03-03T11:16:42.286Z,5.82
2018-03-03T11:17:45.650Z,5.82
2018-03-03T11:18:49.047Z,5.82
2018-03-03T11:19:52.604Z,5.84
2018-03-03T11:20:56.003Z,5.85
2018-03-03T11:21:59.411Z,5.85
2018-03-03T11:23:02.738Z,5.85
2018-03-03T11:24:06.161Z,5.82
2018-03-03T11:25:09.690Z,5.78
2018-03-03T11:26:13.040Z,5.75
2018-03-03T11:27:16.464Z,5.68
2018-03-03T11:28:19.804Z,5.62
2018-03-03T11:29:23.133Z,5.56
2018-03-03T11:30:26.579Z,5.50
2018-03-03T11:31:29.942Z,5.46
2018-03-03T11:32:33.366Z,5.43
2018-03-03T11:33:36.883Z,5.41
2018-03-03T11:34:40.306Z,5.39
2018-03-03T11:35:43.773Z,5.38
2018-03-03T11:36:47.135Z,5.39
2018-03-03T11:37:50.537Z,5.41
2018-03-03T11:38:54.005Z,5.42
2018-03-03T11:39:57.341Z,5.42
2018-03-03T11:41:00.758Z,5.42
2018-03-03T11:42:04.068Z,5.41
2018-03-03T11:43:07.417Z,5.40
2018-03-03T11:44:10.753Z,5.41
2018-03-03T11:45:14.060Z,5.42
2018-03-03T11:46:17.517Z,5.42
2018-03-03T11:47:20.861Z,5.42
2018-03-03T11:48:24.189Z,5.40
2018-03-03T11:49:27.618Z,5.39
2018-03-03T11:50:31.205Z,5.36
2018-03-03T11:51:36.489Z,5.35
2018-03-03T11:52:39.946Z,5.34
2018-03-03T11:53:43.636Z,5.34
2018-03-03T11:54:47.001Z,5.33
2018-03-03T11:55:50.365Z,5.30
2018-03-03T11:56:53.767Z,5.28
2018-03-03T11:57:57.156Z,5.27
2018-03-03T11:59:00.544Z,5.28
2018-03-03T12:00:04.479Z,5.28
2018-03-03T12:01:07.823Z,5.29
2018-03-03T12:02:11.212Z,5.29
2018-03-03T12:03:14.576Z,5.29
2018-03-03T12:04:18.083Z,5.30
2018-03-03T12:05:21.795Z,5.31
2018-03-03T12:06:25.163Z,5.31
2018-03-03T12:07:28.510Z,5.32
2018-03-03T12:08:31.914Z,5.33
2018-03-03T12:09:35.383Z,5.33
2018-03-03T12:10:38.782Z,5.33
2018-03-03T12:11:42.115Z,5.31
2018-03-03T12:12:45.504Z,5.29
2018-03-03T12:13:48.932Z,5.28
2018-03-03T12:14:52.268Z,5.28
2018-03-03T12:15:55.616Z,5.27
2018-03-03T12:16:59.001Z,5.26
2018-03-03T12:18:02.408Z,5.25
2018-03-03T12:19:05.732Z,5.24
2018-03-03T12:20:09.076Z,5.24
2018-03-03T12:21:12.447Z,5.25
2018-03-03T12:22:15.869Z,5.24
2018-03-03T12:23:19.248Z,5.25
2018-03-03T12:24:22.738Z,5.25
2018-03-03T12:25:26.103Z,5.26
2018-03-03T12:26:29.492Z,5.27
2018-03-03T12:27:32.853Z,5.28
2018-03-03T12:28:36.228Z,5.28
2018-03-03T12:29:39.565Z,5.28
2018-03-03T12:30:42.921Z,5.26
2018-03-03T12:31:46.283Z,5.25
2018-03-03T12:32:49.704Z,5.24
2018-03-03T12:33:53.692Z,5.24
2018-03-03T12:34:57.117Z,5.26
2018-03-03T12:36:00.477Z,5.28
2018-03-03T12:37:03.896Z,5.31
2018-03-03T12:38:07.208Z,5.34
2018-03-03T12:39:10.816Z,5.36
2018-03-03T12:40:14.225Z,5.37
2018-03-03T12:41:17.702Z,5.40
2018-03-03T12:42:21.003Z,5.42
2018-03-03T12:43:24.337Z,5.45
2018-03-03T12:44:27.877Z,5.49
2018-03-03T12:45:31.281Z,5.50
2018-03-03T12:46:34.589Z,5.50
2018-03-03T12:47:37.945Z,5.51
2018-03-03T12:48:41.347Z,5.51
2018-03-03T12:49:44.784Z,5.51
2018-03-03T12:50:48.114Z,5.52
2018-03-03T12:51:51.447Z,5.52
2018-03-03T12:52:55.370Z,5.53
2018-03-03T12:53:58.737Z,5.55
2018-03-03T12:55:02.333Z,5.57
2018-03-03T12:56:05.715Z,5.57
2018-03-03T12:57:09.032Z,5.57
2018-03-03T12:58:12.446Z,5.58
2018-03-03T12:59:15.873Z,5.59
2018-03-03T13:00:19.806Z,5.59
2018-03-03T13:01:23.237Z,5.58
2018-03-03T13:02:26.607Z,5.59
2018-03-03T13:03:30.136Z,5.60
2018-03-03T13:04:33.518Z,5.63
2018-03-03T13:05:38.025Z,5.66
2018-03-03T13:06:41.363Z,5.70
2018-03-03T13:07:44.743Z,5.72
2018-03-03T13:08:48.136Z,5.74
2018-03-03T13:09:51.457Z,5.74
2018-03-03T13:10:54.904Z,5.74
2018-03-03T13:11:58.238Z,5.74
2018-03-03T13:13:01.530Z,5.73
2018-03-03T13:14:04.907Z,5.74
2018-03-03T13:15:08.220Z,5.73
2018-03-03T13:16:11.575Z,5.71
2018-03-03T13:17:15.614Z,5.70
2018-03-03T13:18:19.470Z,5.69
2018-03-03T13:19:22.869Z,5.69
2018-03-03T13:20:26.210Z,5.69
2018-03-03T13:21:29.793Z,5.69
2018-03-03T13:22:33.093Z,5.69
2018-03-03T13:23:36.708Z,5.69
2018-03-03T13:24:40.031Z,5.69
2018-03-03T13:25:43.398Z,5.69
2018-03-03T13:26:46.742Z,5.69
2018-03-03T13:27:50.094Z,5.70
2018-03-03T13:28:53.444Z,5.71
2018-03-03T13:29:56.971Z,5.72
2018-03-03T13:31:00.393Z,5.73
2018-03-03T13:32:03.798Z,5.74
2018-03-03T13:33:07.146Z,5.75
2018-03-03T13:34:10.453Z,5.76
2018-03-03T13:35:13.944Z,5.77
2018-03-03T13:36:17.374Z,5.78
2018-03-03T13:37:20.785Z,5.78
2018-03-03T13:38:24.104Z,5.80
2018-03-03T13:39:27.811Z,5.81
2018-03-03T13:40:31.244Z,5.81
2018-03-03T13:41:34.556Z,5.82
2018-03-03T13:42:37.940Z,5.82
2018-03-03T13:43:41.383Z,5.83
2018-03-03T13:44:44.747Z,5.85
2018-03-03T13:45:48.656Z,5.86
2018-03-03T13:46:52.001Z,5.88
2018-03-03T13:47:56.627Z,5.89
2018-03-03T13:49:00.131Z,5.90
2018-03-03T13:50:03.518Z,5.91
2018-03-03T13:51:06.896Z,5.93
2018-03-03T13:52:10.220Z,5.94
2018-03-03T13:53:13.569Z,5.95
2018-03-03T13:54:16.960Z,5.97
2018-03-03T13:55:20.430Z,5.99
2018-03-03T13:56:23.806Z,6.00
2018-03-03T13:57:27.124Z,6.01
2018-03-03T13:58:30.493Z,6.02
2018-03-03T13:59:33.834Z,6.03
2018-03-03T14:00:37.445Z,6.04
2018-03-03T14:01:40.897Z,6.05
2018-03-03T14:02:44.307Z,6.03
2018-03-03T14:03:47.634Z,6.03
2018-03-03T14:04:51.068Z,6.04
2018-03-03T14:05:54.402Z,6.03
2018-03-03T14:06:57.845Z,6.04
2018-03-03T14:08:01.225Z,6.05
2018-03-03T14:09:04.680Z,6.05
2018-03-03T14:10:08.160Z,6.06
2018-03-03T14:11:11.497Z,6.06
2018-03-03T14:12:14.881Z,6.07
2018-03-03T14:13:18.263Z,6.08
2018-03-03T14:14:21.578Z,6.09
2018-03-03T14:15:24.900Z,6.10
2018-03-03T14:16:28.366Z,6.11
2018-03-03T14:17:31.736Z,6.12
2018-03-03T14:18:35.082Z,6.13
2018-03-03T14:19:38.446Z,6.15
2018-03-03T14:20:41.808Z,6.16
2018-03-03T14:21:45.266Z,6.18
2018-03-03T14:22:48.623Z,6.19
2018-03-03T14:23:51.932Z,6.20
2018-03-03T14:24:55.391Z,6.20
2018-03-03T14:25:58.718Z,6.21
2018-03-03T14:27:02.062Z,6.23
2018-03-03T14:28:05.413Z,6.24